Troy, NY

1:09 AM EDT on September 23, 2014 (GMT -0400)
Bald Mt Site | Change Station
CLOSE
Current Station
Personal Weather Station
Location: Troy, NY
Elevation: 963 ft
Nearby Weather Stations

Elev 963 ft 42.79 °N, 73.63 °W | Updated 6 seconds ago

Partly Cloudy
Partly Cloudy
46.0 °F
Feels Like 46 °F
N
0.0
Wind Variable Wind from WSW
Gusts 0.0 mph

Today
High -- | Low -- °F
--% Chance of Precip.
Yesterday
High -- | Low -- °F
Precip. -- in
6:42 AM 6:49 PM
Waning Crescent, 1% visible
Pressure 30.18 in
Visibility 10.0 miles
Clouds Few 3000 ft
Windchill 46 °F
Dew Point 43 °F
Humidity 89%
Rainfall 0.00 in
Snow Depth Not available.
UV 0 out of 12
Pollen 2.90 out of 12
Air Quality Not available.
Flu Activity Not available.
METAR KALB 230451Z 00000KT 10SM FEW030 07/04 A3018 RMK AO2 SLP219 FEW V SCT T00670044 401720067 $

More Conditions Fewer Conditions

Pressure 30.18 in
Visibility 10.0 miles
Clouds Few 3000 ft
Windchill 46 °F
Dew Point 43 °F
Humidity 89%
Rainfall 0.00 in
Snow Depth Not available.
UV 0 out of 12
Pollen 2.90 out of 12
Air Quality Not available.
Flu Activity Not available.
METAR KALB 230451Z 00000KT 10SM FEW030 07/04 A3018 RMK AO2 SLP219 FEW V SCT T00670044 401720067 $

More Conditions Fewer Conditions

10-Day Weather Forecast

Almanac

Astronomy

Sep. 23, 2014 Rise Set
Actual Time 6:42 AM EDT 6:49 PM EDT
Civil Twilight 6:14 AM EDT 7:18 PM EDT
Nautical Twilight 5:41 AM EDT 7:51 PM EDT
Astronomical Twilight 5:07 AM EDT 8:24 PM EDT
Moon 6:04 AM EDT 6:27 PM EDT
Length of Visible Light 13h 03m
Length of Day
12h 07m
Tomorrow will be 2m 52s shorter.
Waning Crescent, 1% of the Moon is Illuminated
Today
Waning Crescent
Sep 24
New
Oct 1
First Quarter
Oct 8
Full
Oct 15
Last Quarter

Today's Extremes

State Highs State Lows

Community

WunderPhotos

Upload Photos

1,755,607 photos uploaded!

Nearby

Air Quality

  Air Quality AQ Index Pollutant
Yesterday Good
OZONE
Yesterday Good
PM2.5
Monday Good
OZONE
Monday Good
PM2.5
Tuesday Good
OZONE
Tuesday Good
PM2.5

Snow Depth

Station Depth Elevation
No new snow has been reported.

Earthquake Activity

City Distance Mag. Time & Date
No recent earthquake activity has been reported nearby.
Minimum magnitude displayed is 2.5.

Coastal Water Temperatures

Place Temperature
No Stations Reporting

Nearby Weather Stations